Station: Meningie

  Atmospheric Gas Attenuation - ITU Rec 676-11   --------------- db/100km ---------------
Date Time Temp RH % AH g/m3 Dew Point Wind Direction Speed kph Gust kph Barometer mB Rainfall Since 9am 24GHz 47GHz 76GHz 122GHz 134GHz 241GHz
27 09:00 13.2 97 11.14 12.7 1027.6 0.1 25.0 31.0 51.6 135.8 136.1 470.0
26 09:00 13.5 77 9.01 9.6 1027.4 4 20.5 27.2 42.3 110.8 105.5 363.1
25 09:00 8.5 100 8.54 8.5 1007.9 12 19.7 27.2 42.1 110.5 104.1 357.8
23 09:00 12.8 97 10.87 12.4 1013.1 5 24.5 30.1 49.9 131.5 131.3 453.5
21 09:00 14.8 93 11.78 13.7 1004.3 0.4 26.4 30.6 52.2 137.6 140.0 484.1
19 09:00 20 100 17.28 20 1010.9 0 37.8 39.0 73.8 195.1 212.2 736.3
18 09:00 13.5 100 11.7 13.5 1022.8 1 26.2 31.7 53.7 141.4 143.3 495.3
17 09:00 13.5 100 11.7 13.5 1021.4 0 26.2 31.6 53.6 141.2 143.1 494.7
16 09:00 15.2 93 12.07 14.1 1018 0 26.9 31.5 53.9 142.0 145.0 501.4
15 09:00 13.5 80 9.36 10.2 1031.3 0 21.2 27.9 43.9 115.1 110.6 381.0
14 09:00 15 87 11.16 12.8 1030.3 0.6 25.0 30.5 50.7 133.2 133.5 461.1
13 09:00 13.4 86 10 11.1 1025.3 13 22.6 28.8 46.4 121.9 119.1 410.8
12 09:00 16 100 13.62 16 1021.9 0 30.2 34.2 60.6 159.8 166.9 578.0
11 09:00 7.5 100 8.01 7.5 1022.1 0 18.6 27.1 41.0 107.4 99.1 340.1
10 09:00 7.5 100 8.01 7.5 1024.7 0 18.6 27.2 41.1 107.7 99.3 340.8
08 09:00 15.5 89 11.76 13.7 1023.8 0.2 26.2 31.1 52.6 138.6 140.5 485.9
05 09:00 14 97 11.7 13.6 1020.7 5 26.2 31.4 53.2 140.2 142.1 491.2
04 09:00 13.5 100 11.7 13.5 1018.1 0 26.3 31.5 53.4 140.8 142.8 493.5
03 09:00 15 100 12.82 15 1010.8 0 28.6 32.7 57.1 150.5 155.7 538.7
02 09:00 17 99 14.32 16.8 1006.7 0 31.7 34.5 62.2 164.2 173.4 600.8
31 09:00 12.1 100 10.73 12.1 1027.9 0.2 24.2 30.7 50.5 132.8 132.0 455.7
30 09:00 14.5 97 12.06 14.1 1018.3 0.2 27.0 31.8 54.4 143.3 146.2 505.6
29 09:00 13 82 9.3 10.1 1024.2 0.2 21.1 27.7 43.6 114.4 109.9 378.4
28 09:00 10.5 100 9.7 10.5 1029.3 0 22.1 29.4 47.0 123.4 119.8 412.5
27 09:00 14.5 100 12.44 14.5 1024.7 0 27.8 32.8 56.5 148.7 152.6 527.9
26 09:00 9.5 100 9.1 9.5 1029.5 0 20.9 28.7 45.0 118.0 112.6 387.4
25 09:00 8 100 8.27 8 1032.3 0.2 19.1 27.8 42.3 110.8 103.0 353.7
23 09:00 10 95 8.93 9.2 1019.6 10 20.5 27.8 43.5 114.1 108.6 373.4
21 09:00 9 100 8.82 9 1007.1 8 20.3 27.5 43.0 112.9 107.3 369.1
20 09:00 11 100 10.01 11 1007.6 5 22.8 28.9 47.0 123.7 121.4 418.4
19 09:00 9.5 100 9.1 9.5 996.4 12 20.9 27.4 43.4 114.2 109.6 377.3
17 09:00 10.1 93 8.8 9.1 1009.7 0.1 20.2 27.2 42.4 111.4 105.7 363.6
15 09:00 11.4 100 10.27 11.4 1014.8 0.6 23.3 29.5 48.3 127.0 125.2 431.8
14 09:00 10 100 9.4 10 1010.4 0.6 21.5 28.3 45.1 118.5 114.4 394.0
13 09:00 12 100 10.66 12 1009.3 24.1 29.8 49.3 129.9 129.3 446.2
11 09:00 12 100 10.66 12 1011.8 0 24.1 29.9 49.5 130.2 129.5 447.1
10 09:00 7.5 79 6.33 4.1 1021.6 0.2 15.0 24.3 34.0 88.6 76.0 259.2
08 09:00 9.9 73 6.82 5.3 1012.3 3 16.0 24.1 34.5 90.2 79.4 271.6
07 09:00 7 100 7.75 7 1015.5 0 18.1 26.6 39.8 104.4 95.6 327.6
06 09:00 3 100 5.95 3 1022.2 0 14.4 24.9 34.3 89.7 75.3 256.0
05 09:00 8 89 7.36 6.3 1022.2 0.1 17.2 25.9 38.0 99.4 89.5 306.3
04 09:00 10 96 9.02 9.4 1020.4 0.6 20.7 28.0 43.9 115.2 109.9 378.2
03 09:00 9.8 96 8.91 9.2 1019.9 0.1 20.4 27.9 43.5 114.2 108.6 373.5
01 09:00 13.5 89 10.41 11.8 1022.3 0.2 23.5 29.4 47.9 126.1 124.5 429.6
31 09:00 6 100 7.26 6 1027.5 0 17.1 26.5 38.8 101.4 90.8 310.7
30 09:00 7.5 100 8.01 7.5 1028.9 1 18.6 27.4 41.3 108.1 99.7 342.0
29 09:00 8.3 100 8.43 8.3 1022 0.2 19.5 27.6 42.4 111.1 104.0 357.3
28 09:00 9 80 7.06 5.7 1022.7 0.2 16.5 25.1 36.3 94.9 84.3 288.3
27 09:00 12.5 100 11 12.5 1022.8 0.8 24.8 30.8 51.2 134.7 134.8 465.4
25 09:00 7.5 100 8.01 7.5 1022.4 0 18.6 27.1 41.0 107.4 99.2 340.2
24 09:00 5 100 6.8 5 1021.4 0 16.1 25.8 37.0 96.8 85.0 290.4
23 09:00 6 100 7.26 6 1028.3 0 17.1 26.5 38.8 101.5 90.9 310.9
22 09:00 10 97 9.12 9.6 1031.2 0.2 20.9 28.6 44.9 117.6 112.3 386.4
21 09:00 10.2 97 9.23 9.8 1032.8 0.4 21.1 28.8 45.3 118.8 113.7 391.4
20 09:00 12.5 92 10.12 11.2 1026.4 1 22.9 29.4 47.5 124.8 122.4 422.0
18 09:00 9.2 97 8.66 8.8 1013.4 0.2 19.9 27.4 42.5 111.5 105.3 362.1
17 09:00 5.1 100 6.85 5.1 1021.9 0 16.2 25.9 37.2 97.3 85.7 292.6
16 09:00 5 100 6.8 5 1024.3 0 16.1 25.9 37.1 97.1 85.2 291.1
15 09:00 3 99 5.89 2.8 1024.4 0.2 14.2 24.9 34.2 89.2 74.6 253.6
14 09:00 4.5 79 5.2 1.2 1028.9 0.2 12.7 23.5 30.9 80.4 64.2 217.2
13 09:00 5.1 99 6.78 4.9 1027.9 0.4 16.1 26.0 37.2 97.1 85.1 290.6
12 09:00 11.6 97 10.08 11.2 1020.4 1 22.9 29.4 47.6 125.1 122.6 422.9
11 09:00 9 93 8.2 8 1016.4 0.6 19.0 26.8 40.7 106.9 99.4 341.3
10 09:00 9.5 97 8.83 9.1 1020 0 20.3 27.8 43.3 113.7 107.9 371.0
09 09:00 6.5 100 7.5 6.5 1025.2 0 17.6 26.7 39.4 103.2 93.4 319.9
08 09:00 7 99 7.67 6.8 1028.5 0.1 17.9 27.0 40.1 104.9 95.5 327.1
07 09:00 11 96 9.61 10.4 1033.1 0.1 21.9 29.2 46.5 122.0 118.0 406.5
06 09:00 10.5 96 9.31 9.9 1034 3 21.3 28.9 45.5 119.4 114.6 394.3
03 09:00 11 100 10.01 11 1020.5 2 22.8 29.4 47.6 125.2 122.6 422.7
02 09:00 10 100 9.4 10 1015.3 5 21.5 28.5 45.3 119.1 114.9 395.6
29 09:00 3 100 5.95 3 1025.6 0 14.4 25.1 34.5 90.0 75.6 256.8
27 09:00 8.2 97 8.13 7.8 1027.8 0.4 18.8 27.4 41.4 108.4 100.4 344.5
25 09:00 10.5 100 9.7 10.5 1020.9 0 22.1 29.1 46.6 122.4 119.0 409.8
24 09:00 11.4 97 9.96 11 1020.8 0.6 22.6 29.2 47.2 124.0 121.3 418.1
22 09:00 12 95 10.13 11.2 1016.1 3 23.0 29.1 47.3 124.5 122.3 421.8
21 09:00 11.6 97 10.08 11.2 1012.2 9 22.9 29.0 47.2 124.1 121.8 420.2
19 09:00 9 100 8.82 9 1018.2 0 20.3 27.9 43.5 114.2 108.3 372.4
18 09:00 8.5 100 8.54 8.5 1030 0 19.7 28.1 43.1 113.0 106.0 364.2
17 09:00 12 97 10.34 11.6 1033.1 0.8 23.4 30.2 49.1 129.0 127.0 438.1
16 09:00 13.8 93 11.08 12.7 1023.7 3 24.9 30.5 50.8 133.5 133.7 461.9
15 09:00 14 100 12.06 14 1021.2 4 27.0 32.1 54.9 144.6 147.5 510.1
14 09:00 13.8 93 11.08 12.7 1016.3 5 24.9 30.2 50.4 132.6 133.0 459.3
13 09:00 10.7 93 9.14 9.7 1008.8 0.4 20.9 27.6 43.5 114.3 109.6 377.2
12 09:00 6.1 100 7.31 6.1 1021.3 0 17.2 26.3 38.6 101.2 90.9 311.1
11 09:00 3 100 5.95 3 1025.8 0 14.4 25.1 34.5 90.0 75.6 256.8
10 09:00 3.4 100 6.11 3.4 1027.9 0.1 14.7 25.3 35.1 91.6 77.5 263.8
09 09:00 3.6 100 6.2 3.6 1031.7 0 14.9 25.6 35.6 92.7 78.9 268.3
08 09:00 6.1 99 7.24 5.9 1032.8 0.1 17.0 26.7 38.9 101.6 90.8 310.6
07 09:00 12 76 8.1 7.9 1028.9 0.1 18.6 26.2 39.4 103.1 95.2 327.0
06 09:00 4.1 99 6.34 3.9 1026.6 0.2 15.2 25.5 35.7 93.2 79.9 272.3
05 09:00 3 100 5.95 3 1030.6 0 14.4 25.3 34.7 90.5 75.9 257.8
04 09:00 4.5 100 6.58 4.5 1034.8 0.1 15.7 26.1 36.9 96.3 83.5 284.6
03 09:00 12.8 93 10.42 11.7 1032.8 0.8 23.5 30.1 49.0 128.6 126.8 437.5
02 09:00 13.5 100 11.7 13.5 1023.4 5 26.2 31.7 53.7 141.4 143.4 495.5
01 09:00 12.6 72 7.97 7.7 1015.4 10 18.3 25.3 38.0 99.5 91.7 315.0
31 09:00 12.6 100 11.06 12.6 1014.2 3 24.9 30.5 51.0 134.2 134.6 464.8
30 09:00 9.9 93 8.69 8.9 1016.6 0 20.0 27.3 42.4 111.2 105.1 361.2
29 09:00 8 100 8.27 8 1025.2 0.1 19.2 27.6 42.0 110.0 102.4 351.7
28 09:00 11 100 10.01 11 1022.3 0.4 22.8 29.5 47.7 125.5 122.8 423.3
27 09:00 12.8 93 10.42 11.7 1018.9 0 23.5 29.5 48.3 126.9 125.4 432.8

Last Refresh: 27-Sep-2020 14:27:03

Most of the information presented on this site is sourced from the Bureau of Meteorology.  Copyright in all material sourced from the Bureau of Meteorology resides with the Commonwealth of Australia.